Time;durP1;ratioP1;P1;durP2;ratioP2;P2;SDS_P1;SDS_P2;PMS_P1;PMS_P2;Temp;Humidity;BMP_temperature;BMP_pressure;BME280_temperature;BME280_humidity;BME280_pressure;Samples;Min_cycle;Max_cycle;Signal;HPM_P1;HPM_P2
2022/10/22 00:01:02;;;;;;;12.20;9.15;;;12.80;99.90;;;-141.84;100.00;15454.84;5111317;28;20227;-61
2022/10/22 00:03:30;;;;;;;11.30;9.50;;;12.80;99.90;;;-141.84;100.00;15408.16;5111196;28;20636;-60
2022/10/22 00:05:59;;;;;;;10.88;8.82;;;12.80;99.90;;;-141.84;100.00;15328.97;5110125;28;20599;-61
2022/10/22 00:08:29;;;;;;;10.02;9.00;;;12.80;99.90;;;-141.84;100.00;15304.63;5111453;28;20237;-60
2022/10/22 00:10:57;;;;;;;10.33;9.23;;;12.80;99.90;;;-141.84;100.00;15369.56;5111464;28;20266;-59
2022/10/22 00:13:25;;;;;;;15.13;10.70;;;12.80;99.90;;;-141.84;100.00;15391.91;5110796;28;20230;-60
2022/10/22 00:15:53;;;;;;;16.10;10.75;;;12.90;99.90;;;-141.84;100.00;15400.03;5110983;28;20227;-59
2022/10/22 00:18:21;;;;;;;10.40;9.13;;;12.90;99.90;;;-141.84;100.00;15402.06;5111311;28;20227;-61
2022/10/22 00:20:49;;;;;;;10.98;9.50;;;12.90;99.90;;;-141.84;100.00;15373.63;5111174;28;20223;-63
2022/10/22 00:23:17;;;;;;;13.55;10.18;;;12.90;99.90;;;-141.84;100.00;15410.19;5111333;28;20244;-61
2022/10/22 00:25:47;;;;;;;10.43;9.32;;;12.90;99.90;;;-141.84;100.00;15400.03;5110635;28;20579;-60
2022/10/22 00:28:15;;;;;;;12.35;9.90;;;12.90;99.90;;;-141.84;100.00;15414.25;5110791;28;20741;-59
2022/10/22 00:30:43;;;;;;;10.52;8.63;;;12.90;99.90;;;-141.84;100.00;15398.00;5110877;28;20626;-61
2022/10/22 00:33:11;;;;;;;11.02;9.40;;;12.90;99.90;;;-141.84;100.00;15379.72;5110698;28;20223;-59
2022/10/22 00:35:39;;;;;;;11.98;9.65;;;12.90;99.90;;;-141.84;100.00;15454.84;5110871;28;20199;-61
2022/10/22 00:38:07;;;;;;;14.73;9.73;;;13.00;99.90;;;-141.84;100.00;15375.66;5111251;28;20248;-62
2022/10/22 00:40:35;;;;;;;11.60;9.45;;;13.00;99.90;;;-141.84;100.00;15402.06;5110359;28;20223;-61
2022/10/22 00:43:04;;;;;;;11.70;9.47;;;13.00;99.90;;;-141.84;100.00;15373.63;5108703;28;20223;-59
2022/10/22 00:45:32;;;;;;;12.48;9.07;;;13.00;99.90;;;-141.84;100.00;15353.34;5103901;28;20294;-61
2022/10/22 00:48:05;;;;;;;12.00;10.02;;;13.00;99.90;;;-141.84;100.00;15398.00;5090042;28;20804;-61
2022/10/22 00:50:39;;;;;;;12.60;9.63;;;13.00;99.90;;;-141.84;100.00;15385.81;5090529;28;20185;-61
2022/10/22 00:53:13;;;;;;;12.18;9.48;;;13.10;99.90;;;-141.84;100.00;15387.84;5090885;28;20687;-60
2022/10/22 00:55:44;;;;;;;9.52;8.60;;;13.10;99.90;;;-141.84;100.00;15373.63;5089990;28;20750;-60
2022/10/22 00:58:14;;;;;;;9.70;8.70;;;13.10;99.90;;;-141.84;100.00;15367.56;5090299;28;20224;-59
2022/10/22 01:00:43;;;;;;;9.85;8.88;;;13.10;99.90;;;-141.84;100.00;15375.66;5090560;28;20228;-61
2022/10/22 01:03:11;;;;;;;11.50;9.27;;;13.10;99.90;;;-141.84;100.00;15379.72;5090046;28;20943;-61
2022/10/22 01:05:46;;;;;;;11.27;9.32;;;13.10;99.90;;;-141.84;100.00;15345.22;5089431;28;20691;-62
2022/10/22 01:08:25;;;;;;;12.52;10.05;;;13.10;99.90;;;-141.84;100.00;15379.72;5090159;28;20188;-60
2022/10/22 01:11:13;;;;;;;11.65;9.23;;;13.10;99.90;;;-141.84;100.00;15412.22;5090102;28;20211;-59
2022/10/22 01:13:57;;;;;;;12.13;9.25;;;13.10;99.90;;;-141.84;100.00;15304.63;5096197;28;20721;-60
2022/10/22 01:16:37;;;;;;;12.65;8.80;;;13.10;99.90;;;-141.84;100.00;15294.47;5110886;28;20227;-59
2022/10/22 01:19:30;;;;;;;11.32;8.77;;;13.20;99.90;;;-141.84;100.00;15300.56;5113841;28;20374;-60
2022/10/22 01:22:05;;;;;;;11.77;9.18;;;13.10;99.90;;;-141.84;100.00;15298.53;5114316;28;20231;-59
2022/10/22 01:24:49;;;;;;;10.97;9.47;;;13.10;99.90;;;-141.84;100.00;15308.69;5113800;27;20280;-60
2022/10/22 01:27:31;;;;;;;13.85;9.63;;;13.20;99.90;;;-141.84;100.00;15300.56;5114527;28;20231;-60
2022/10/22 01:30:05;;;;;;;11.07;9.25;;;13.20;99.90;;;-141.84;100.00;15308.69;5114118;28;20226;-60
2022/10/22 01:32:40;;;;;;;10.73;9.63;;;13.20;99.90;;;-141.84;100.00;15276.19;5114153;27;20187;-62
2022/10/22 01:35:14;;;;;;;10.00;8.85;;;13.20;99.90;;;-141.84;100.00;15298.53;5114586;28;20230;-59
2022/10/22 01:37:49;;;;;;;13.52;9.75;;;13.20;99.90;;;-141.84;100.00;15308.69;5114158;28;20313;-59
2022/10/22 01:40:18;;;;;;;11.30;9.95;;;13.20;99.90;;;-141.84;100.00;15294.47;5113545;27;20643;-60
2022/10/22 01:42:57;;;;;;;11.75;9.73;;;13.20;99.90;;;-141.84;100.00;15288.38;5113678;28;20260;-59
2022/10/22 01:45:30;;;;;;;10.63;9.05;;;13.20;99.90;;;-141.84;100.00;15284.31;5113530;28;20252;-59
2022/10/22 01:48:15;;;;;;;12.48;9.85;;;13.20;99.90;;;-141.84;100.00;15272.13;5114157;28;20248;-60
2022/10/22 01:51:07;;;;;;;16.15;10.30;;;13.20;99.90;;;-141.84;100.00;15292.44;5113628;28;20585;-60
2022/10/22 01:53:48;;;;;;;13.10;9.52;;;13.20;99.90;;;-141.84;100.00;15326.94;5113386;28;20210;-61
2022/10/22 01:56:35;;;;;;;10.23;9.23;;;13.20;99.90;;;-141.84;100.00;15292.44;5114171;28;20198;-60
2022/10/22 01:59:14;;;;;;;11.40;9.90;;;13.30;99.90;;;-141.84;100.00;15290.41;5113850;28;20233;-61
2022/10/22 02:01:58;;;;;;;11.32;9.82;;;13.20;99.90;;;-141.84;100.00;15282.28;5113529;27;20241;-60
2022/10/22 02:04:33;;;;;;;11.25;9.27;;;13.30;99.90;;;-141.84;100.00;15270.09;5113314;28;20269;-60
2022/10/22 02:07:07;;;;;;;10.38;8.95;;;13.20;99.90;;;-141.84;100.00;15243.72;5113643;28;20231;-61
2022/10/22 02:09:39;;;;;;;11.45;9.23;;;13.10;99.90;;;-141.84;100.00;15257.94;5113267;28;20223;-60
2022/10/22 02:12:09;;;;;;;9.70;8.70;;;13.10;99.90;;;-141.84;100.00;15255.91;5113679;28;20288;-61
2022/10/22 02:14:43;;;;;;;10.45;9.35;;;13.00;99.90;;;-141.84;100.00;15235.59;5113131;28;20259;-60
2022/10/22 02:17:18;;;;;;;9.85;8.73;;;13.00;99.90;;;-141.84;100.00;15209.22;5114354;28;20180;-61
2022/10/22 02:19:54;;;;;;;13.68;9.25;;;13.00;99.90;;;-141.84;100.00;15262.00;5113072;28;20249;-60
2022/10/22 02:22:24;;;;;;;9.65;8.55;;;12.90;99.90;;;-141.84;100.00;15233.56;5113203;28;20226;-60
2022/10/22 02:24:53;;;;;;;10.32;8.80;;;12.90;99.90;;;-141.84;100.00;15241.69;5112685;28;20227;-60
2022/10/22 02:27:29;;;;;;;11.45;9.25;;;12.90;99.90;;;-141.84;100.00;15235.59;5112953;27;20607;-59
2022/10/22 02:30:06;;;;;;;10.82;9.50;;;12.90;99.90;;;-141.84;100.00;15237.63;5112041;28;20226;-61
2022/10/22 02:32:47;;;;;;;11.43;9.60;;;12.90;99.90;;;-141.84;100.00;15227.47;5113304;28;20683;-60
2022/10/22 02:35:22;;;;;;;12.85;9.60;;;12.90;99.90;;;-141.84;100.00;15237.63;5113398;28;20219;-61
2022/10/22 02:37:52;;;;;;;12.30;9.27;;;12.80;99.90;;;-141.84;100.00;15272.13;5113320;28;20210;-59
2022/10/22 02:40:21;;;;;;;12.02;9.75;;;12.80;99.90;;;-141.84;100.00;15239.66;5112556;28;20729;-61
2022/10/22 02:42:51;;;;;;;10.45;9.35;;;12.80;99.90;;;-141.84;100.00;15223.41;5112811;28;20230;-60
2022/10/22 02:45:20;;;;;;;11.32;9.93;;;12.80;99.90;;;-141.84;100.00;15237.63;5112480;28;20227;-61
2022/10/22 02:47:49;;;;;;;11.25;8.95;;;12.70;99.90;;;-141.84;100.00;15213.28;5112772;27;20238;-61
2022/10/22 02:50:18;;;;;;;11.90;8.90;;;12.80;99.90;;;-141.84;100.00;15241.69;5113050;28;20666;-61
2022/10/22 02:52:46;;;;;;;10.75;9.35;;;12.70;99.90;;;-141.84;100.00;15211.25;5112737;28;20283;-60
2022/10/22 02:55:14;;;;;;;11.30;9.80;;;12.70;99.90;;;-141.84;100.00;15207.19;5112016;28;20227;-61
2022/10/22 02:57:42;;;;;;;14.20;10.17;;;12.60;99.90;;;-141.84;100.00;15247.78;5112633;28;20646;-59
2022/10/22 03:00:12;;;;;;;12.47;10.43;;;12.70;99.90;;;-141.84;100.00;15264.03;5112597;28;20219;-60
2022/10/22 03:02:40;;;;;;;13.77;10.10;;;12.70;99.90;;;-141.84;100.00;15223.41;5112571;28;20184;-63
2022/10/22 03:05:10;;;;;;;15.63;10.68;;;12.70;99.90;;;-141.84;100.00;15233.56;5112814;28;20196;-60
2022/10/22 03:07:39;;;;;;;13.75;10.13;;;12.70;99.90;;;-141.84;100.00;15146.28;5112360;28;20231;-60
2022/10/22 03:10:08;;;;;;;13.60;10.90;;;12.70;99.90;;;-141.84;100.00;15152.38;5111894;28;20231;-60
2022/10/22 03:12:36;;;;;;;15.07;11.20;;;12.70;99.90;;;-141.84;100.00;15146.28;5112354;28;20230;-61
2022/10/22 03:15:06;;;;;;;13.07;10.77;;;12.80;99.90;;;-141.84;100.00;15105.69;5112105;28;20650;-59
2022/10/22 03:17:34;;;;;;;16.40;11.95;;;12.80;99.90;;;-141.84;100.00;15061.03;5112361;28;20195;-62
2022/10/22 03:20:02;;;;;;;13.10;10.55;;;12.80;99.90;;;-141.84;100.00;15065.09;5112576;28;20214;-61
2022/10/22 03:22:34;;;;;;;11.63;10.30;;;12.80;99.90;;;-141.84;100.00;15056.97;5111830;28;20281;-60
2022/10/22 03:25:10;;;;;;;13.60;9.98;;;12.80;99.90;;;-141.84;100.00;15020.44;5111492;28;20234;-60
2022/10/22 03:27:41;;;;;;;14.88;10.55;;;12.80;99.90;;;-141.84;100.00;15028.53;5112182;28;20226;-59
2022/10/22 03:30:11;;;;;;;13.05;10.07;;;12.80;99.90;;;-141.84;100.00;14939.22;5111889;28;20227;-61
2022/10/22 03:32:39;;;;;;;12.30;9.83;;;12.80;99.90;;;-141.84;100.00;14961.56;5111820;28;20206;-61
2022/10/22 03:35:08;;;;;;;12.38;10.02;;;12.80;99.90;;;-141.84;100.00;14874.28;5112119;28;20573;-59
2022/10/22 03:37:38;;;;;;;12.15;9.35;;;12.80;99.90;;;-141.84;100.00;14866.16;5111543;27;20603;-60
2022/10/22 03:40:10;;;;;;;11.57;9.57;;;12.80;99.90;;;-141.84;100.00;14835.72;5111334;28;20656;-60
2022/10/22 03:42:38;;;;;;;13.70;9.25;;;12.80;99.90;;;-141.84;100.00;14853.97;5110295;28;20602;-59
2022/10/22 03:45:08;;;;;;;14.25;10.48;;;12.80;99.90;;;-141.84;100.00;14849.94;5108527;28;20219;-60
2022/10/22 03:47:37;;;;;;;14.55;10.43;;;12.80;99.90;;;-141.84;100.00;14829.63;5111061;28;20200;-60
2022/10/22 03:50:07;;;;;;;14.23;10.35;;;12.80;99.90;;;-141.84;100.00;14862.09;5111349;28;20230;-60
2022/10/22 03:52:38;;;;;;;12.30;10.43;;;12.80;99.90;;;-141.84;100.00;14815.41;5108390;28;20228;-60
2022/10/22 03:55:08;;;;;;;15.32;10.05;;;12.80;99.90;;;-141.84;100.00;14856.00;5111146;28;20219;-60
2022/10/22 03:57:36;;;;;;;11.13;9.98;;;12.80;99.90;;;-141.84;100.00;14823.53;5108829;28;20227;-61
2022/10/22 04:00:07;;;;;;;14.00;10.35;;;12.80;99.90;;;-141.84;100.00;14793.09;5110985;28;20219;-59
2022/10/22 04:02:35;;;;;;;12.18;10.88;;;12.80;99.90;;;-141.84;100.00;14784.97;5111577;28;20191;-61
2022/10/22 04:05:03;;;;;;;11.90;9.80;;;12.80;99.90;;;-141.84;100.00;14677.41;5111987;28;20537;-61
2022/10/22 04:07:31;;;;;;;14.18;9.98;;;12.80;99.90;;;-141.84;100.00;14620.56;5111169;28;20227;-60
2022/10/22 04:10:00;;;;;;;11.98;10.13;;;12.80;99.90;;;-141.84;100.00;14622.59;5111128;28;20237;-60
2022/10/22 04:12:28;;;;;;;11.48;9.70;;;12.80;99.90;;;-141.84;100.00;14561.72;5109637;28;20773;-61
2022/10/22 04:14:56;;;;;;;13.80;9.15;;;12.80;99.90;;;-141.84;100.00;14539.38;5109348;28;20245;-60
2022/10/22 04:17:24;;;;;;;15.98;10.90;;;12.80;99.90;;;-141.84;100.00;14527.22;5110970;28;20204;-60
2022/10/22 04:19:52;;;;;;;11.23;9.27;;;12.80;99.90;;;-141.84;100.00;14488.66;5111615;28;20199;-60
2022/10/22 04:22:20;;;;;;;12.50;9.77;;;12.80;99.90;;;-141.84;100.00;14484.59;5111125;28;20227;-60
2022/10/22 04:24:48;;;;;;;12.63;10.20;;;12.80;99.90;;;-141.84;100.00;14470.38;5111070;28;20227;-60
2022/10/22 04:27:19;;;;;;;13.25;10.30;;;12.70;99.90;;;-141.84;100.00;14472.41;5111379;28;20647;-59
2022/10/22 04:29:47;;;;;;;14.63;11.20;;;12.80;99.90;;;-141.84;100.00;14480.53;5110312;28;20222;-60
2022/10/22 04:32:15;;;;;;;14.88;10.93;;;12.70;99.90;;;-141.84;100.00;14415.56;5111097;28;20199;-59
2022/10/22 04:34:43;;;;;;;14.13;11.63;;;12.70;99.90;;;-141.84;100.00;14472.41;5109974;28;20227;-59
2022/10/22 04:37:10;;;;;;;12.52;11.07;;;12.70;99.90;;;-141.84;100.00;14466.31;5110853;28;20288;-60
2022/10/22 04:39:38;;;;;;;13.60;11.50;;;12.70;99.90;;;-141.84;100.00;14480.53;5111013;28;20227;-59
2022/10/22 04:42:06;;;;;;;15.10;11.77;;;12.70;99.90;;;-141.84;100.00;14452.13;5109774;28;20603;-60
2022/10/22 04:44:36;;;;;;;14.00;10.70;;;12.70;99.90;;;-141.84;100.00;14444.00;5096432;28;20204;-60
2022/10/22 04:47:04;;;;;;;14.90;11.85;;;12.70;99.90;;;-141.84;100.00;14411.53;5089953;28;20207;-60
2022/10/22 04:49:32;;;;;;;16.13;11.32;;;12.70;99.90;;;-141.84;100.00;14409.50;5090273;28;20235;-59
2022/10/22 04:52:00;;;;;;;15.95;11.77;;;12.70;99.90;;;-141.84;100.00;14460.22;5090107;28;20723;-60
2022/10/22 04:54:28;;;;;;;15.95;12.02;;;12.70;99.90;;;-141.84;100.00;14419.63;5094627;28;20791;-59
2022/10/22 04:57:00;;;;;;;15.65;11.55;;;12.70;99.90;;;-141.84;100.00;14429.78;5094546;28;20277;-59
2022/10/22 04:59:28;;;;;;;12.32;11.02;;;12.80;99.90;;;-141.84;100.00;14427.75;5094161;28;20204;-60
2022/10/22 05:01:57;;;;;;;15.20;10.88;;;12.70;99.90;;;-141.84;100.00;14411.53;5095124;28;20204;-60
2022/10/22 05:04:25;;;;;;;11.57;10.43;;;12.70;99.90;;;-141.84;100.00;14429.78;5093713;28;20220;-60
2022/10/22 05:06:53;;;;;;;11.93;10.63;;;12.70;99.90;;;-141.84;100.00;14425.72;5094109;28;20731;-60
2022/10/22 05:09:21;;;;;;;13.50;11.00;;;12.70;99.90;;;-141.84;100.00;14395.28;5094091;28;20258;-60
2022/10/22 05:11:51;;;;;;;17.40;11.05;;;12.70;99.90;;;-141.84;100.00;14383.09;5094273;28;20224;-60
2022/10/22 05:14:22;;;;;;;15.32;11.45;;;12.70;99.90;;;-141.84;100.00;14395.28;5093883;28;20690;-59
2022/10/22 05:16:52;;;;;;;12.88;10.13;;;12.70;99.90;;;-141.84;100.00;14411.53;5094287;28;20216;-60
2022/10/22 05:19:24;;;;;;;11.47;10.07;;;12.70;99.90;;;-141.84;100.00;14379.03;5093054;28;20616;-60
2022/10/22 05:21:54;;;;;;;12.43;10.95;;;12.70;99.90;;;-141.84;100.00;14395.28;5094039;28;20649;-61
2022/10/22 05:24:23;;;;;;;13.73;10.98;;;12.70;99.90;;;-141.84;100.00;14399.34;5094066;28;20281;-59
2022/10/22 05:26:54;;;;;;;12.15;10.90;;;12.70;99.90;;;-141.84;100.00;14385.13;5093933;28;20231;-59
2022/10/22 05:29:23;;;;;;;14.38;10.60;;;12.70;99.90;;;-141.84;100.00;14409.50;5093807;28;20534;-60
2022/10/22 05:31:52;;;;;;;14.07;11.35;;;12.70;99.90;;;-141.84;100.00;14444.00;5094614;28;20212;-59
2022/10/22 05:34:21;;;;;;;13.38;11.55;;;12.70;99.90;;;-141.84;100.00;14407.47;5093689;28;20277;-60
2022/10/22 05:36:49;;;;;;;12.80;10.70;;;12.70;99.90;;;-141.84;100.00;14415.56;5093512;28;20228;-61
2022/10/22 05:39:17;;;;;;;13.73;10.95;;;12.70;99.90;;;-141.84;100.00;14446.03;5097272;28;20223;-59
2022/10/22 05:41:45;;;;;;;12.80;11.07;;;12.80;99.90;;;-141.84;100.00;14411.53;5114088;28;20255;-59
2022/10/22 05:44:13;;;;;;;13.30;9.87;;;12.70;99.90;;;-141.84;100.00;14462.25;5113598;28;20214;-59
2022/10/22 05:46:42;;;;;;;13.35;10.93;;;12.90;99.90;;;-141.84;100.00;14504.88;5113457;27;20336;-60
2022/10/22 05:49:15;;;;;;;13.07;11.60;;;12.90;99.90;;;-141.84;100.00;14439.94;5113722;28;20330;-61
2022/10/22 05:51:44;;;;;;;15.52;12.32;;;12.80;99.90;;;-141.84;100.00;14504.88;5113896;28;20231;-60
2022/10/22 05:54:19;;;;;;;12.38;10.65;;;12.80;99.90;;;-141.84;100.00;14458.19;5113565;28;20577;-59
2022/10/22 05:56:47;;;;;;;12.80;10.88;;;12.90;99.90;;;-141.84;100.00;14472.41;5113606;28;20717;-59
2022/10/22 05:59:15;;;;;;;12.60;10.82;;;12.90;99.90;;;-141.84;100.00;14433.84;5113604;28;20719;-59
2022/10/22 06:01:43;;;;;;;13.80;10.75;;;12.90;99.90;;;-141.84;100.00;14466.31;5113159;28;20227;-60
2022/10/22 06:04:14;;;;;;;16.20;10.73;;;12.90;99.90;;;-141.84;100.00;14421.66;5112340;28;20235;-60
2022/10/22 06:06:47;;;;;;;11.85;10.60;;;12.90;99.90;;;-141.84;100.00;14450.09;5113383;28;20224;-59
2022/10/22 06:09:22;;;;;;;16.35;11.75;;;12.80;99.90;;;-141.84;100.00;14431.81;5113273;28;20215;-59
2022/10/22 06:11:50;;;;;;;14.32;12.35;;;12.80;99.90;;;-141.84;100.00;14456.16;5112974;28;20233;-60
2022/10/22 06:14:20;;;;;;;14.77;11.17;;;12.90;99.90;;;-141.84;100.00;14437.91;5113407;28;20724;-61
2022/10/22 06:16:48;;;;;;;15.77;11.55;;;13.00;99.90;;;-141.84;100.00;14488.66;5113550;28;20238;-60
2022/10/22 06:19:20;;;;;;;13.80;12.32;;;13.00;99.90;;;-141.84;100.00;14458.19;5113178;28;20276;-61
2022/10/22 06:21:49;;;;;;;12.00;10.80;;;13.00;99.90;;;-141.84;100.00;14521.13;5113552;28;20730;-62
2022/10/22 06:24:17;;;;;;;13.82;11.35;;;13.00;99.90;;;-141.84;100.00;14456.16;5113001;27;20767;-61
2022/10/22 06:26:45;;;;;;;16.77;11.82;;;13.00;99.90;;;-141.84;100.00;14476.47;5113008;28;20730;-59
2022/10/22 06:29:13;;;;;;;15.40;12.45;;;13.00;99.90;;;-141.84;100.00;14466.31;5113373;28;20682;-66
2022/10/22 06:31:41;;;;;;;21.30;14.60;;;13.10;99.90;;;-141.84;100.00;14486.63;5113005;28;20737;-68
2022/10/22 06:34:13;;;;;;;16.05;13.57;;;13.10;99.90;;;-141.84;100.00;14478.50;5112833;28;20296;-64
2022/10/22 06:36:44;;;;;;;15.30;12.50;;;13.10;99.90;;;-141.84;100.00;14318.16;5112726;28;20230;-66
2022/10/22 06:39:17;;;;;;;14.95;12.15;;;13.10;99.90;;;-141.84;100.00;14342.50;5113036;27;20223;-67
2022/10/22 06:41:45;;;;;;;15.63;11.77;;;13.10;99.90;;;-141.84;100.00;14306.00;5112499;28;20234;-68
2022/10/22 06:44:15;;;;;;;16.08;12.30;;;13.10;99.90;;;-141.84;100.00;14306.00;5102247;28;20199;-65
2022/10/22 06:46:43;;;;;;;14.90;12.07;;;13.20;99.90;;;-141.84;100.00;14312.06;5092331;28;20231;-65
2022/10/22 06:49:14;;;;;;;15.48;11.80;;;13.20;99.90;;;-141.84;100.00;14293.81;5092437;28;20252;-66
2022/10/22 06:51:42;;;;;;;15.27;11.40;;;13.30;99.90;;;-141.84;100.00;14316.13;5092306;28;20427;-67
2022/10/22 06:54:12;;;;;;;15.25;12.30;;;13.30;99.90;;;-141.84;100.00;14322.22;5092244;28;20227;-67
2022/10/22 06:56:40;;;;;;;13.27;11.88;;;13.30;99.90;;;-141.84;100.00;14306.00;5092165;28;20216;-65
2022/10/22 06:59:08;;;;;;;14.90;12.45;;;13.40;99.90;;;-141.84;100.00;14348.59;5092595;28;20215;-66
2022/10/22 07:01:38;;;;;;;13.32;10.93;;;13.50;99.90;;;-141.84;100.00;14358.75;5092202;28;20288;-66
2022/10/22 07:04:07;;;;;;;14.38;11.52;;;13.60;99.90;;;-141.84;100.00;14318.16;5091981;28;20771;-65
2022/10/22 07:06:36;;;;;;;13.25;11.23;;;13.60;99.90;;;-141.84;100.00;14372.97;5091914;28;20722;-66
2022/10/22 07:09:04;;;;;;;15.48;12.02;;;13.70;99.90;;;-141.84;100.00;13366.44;5092016;28;20227;-65
2022/10/22 07:11:41;;;;;;;12.80;11.43;;;13.70;99.90;;;-141.84;100.00;13425.28;5091548;28;20196;-65
2022/10/22 07:14:09;;;;;;;13.93;12.07;;;13.80;99.90;;;-141.84;100.00;13431.38;5091696;28;20200;-65
2022/10/22 07:16:38;;;;;;;12.85;10.82;;;13.90;99.90;;;-141.84;100.00;13421.22;5091417;28;20239;-65
2022/10/22 07:19:06;;;;;;;12.57;11.38;;;14.00;99.90;;;-141.84;100.00;13461.81;5091751;28;20232;-66
2022/10/22 07:21:34;;;;;;;13.52;11.50;;;14.10;99.90;;;-141.84;100.00;13478.03;5091303;28;20226;-65
2022/10/22 07:24:02;;;;;;;13.65;10.43;;;14.20;99.90;;;-141.84;100.00;13492.25;5091495;28;20781;-66
2022/10/22 07:26:31;;;;;;;13.05;11.05;;;14.20;99.90;;;-141.84;100.00;13538.91;5090817;28;20200;-64
2022/10/22 07:29:01;;;;;;;11.60;9.35;;;14.20;99.90;;;-141.84;100.00;13587.63;5092126;28;20207;-66
2022/10/22 07:31:29;;;;;;;12.73;10.10;;;14.30;99.90;;;-141.84;100.00;13640.38;5091599;28;20227;-66
2022/10/22 07:33:58;;;;;;;14.30;10.10;;;14.40;99.90;;;-141.84;100.00;13664.72;5091500;28;20235;-66
2022/10/22 07:36:26;;;;;;;13.23;9.70;;;14.50;99.90;;;-141.84;100.00;13804.75;5091071;28;20224;-65
2022/10/22 07:38:57;;;;;;;10.15;9.05;;;14.60;99.90;;;-141.84;100.00;13989.41;5091401;28;20219;-66
2022/10/22 07:41:27;;;;;;;8.48;7.65;;;14.70;99.90;;;-141.84;100.00;14336.44;5090934;28;20192;-68
2022/10/22 07:43:56;;;;;;;8.15;7.32;;;14.60;99.90;;;-141.84;100.00;14352.66;5091462;28;20204;-66
2022/10/22 07:46:25;;;;;;;7.93;7.03;;;14.70;99.90;;;-141.84;100.00;14360.78;5091262;28;20293;-67
2022/10/22 07:48:54;;;;;;;8.48;7.15;;;14.60;99.90;;;-141.84;100.00;14247.13;5091183;28;20228;-66
2022/10/22 07:51:22;;;;;;;6.85;6.20;;;14.60;99.90;;;-141.84;100.00;14444.00;5091042;28;20227;-66
2022/10/22 07:53:51;;;;;;;8.13;7.32;;;14.60;99.90;;;-141.84;100.00;14805.28;5090829;28;20220;-65
2022/10/22 07:56:19;;;;;;;8.30;7.30;;;14.70;99.90;;;-141.84;100.00;14823.53;5093920;28;20534;-66
2022/10/22 07:58:47;;;;;;;8.25;7.22;;;14.70;99.90;;;-141.84;100.00;14892.56;5111602;28;20231;-66
2022/10/22 08:01:15;;;;;;;8.05;7.25;;;14.70;99.90;;;-141.84;100.00;15026.53;5111177;28;20219;-67
2022/10/22 08:03:44;;;;;;;7.13;6.45;;;14.70;99.90;;;-141.84;100.00;15117.88;5111478;28;20246;-65
2022/10/22 08:06:14;;;;;;;7.63;6.60;;;14.80;99.90;;;-141.84;100.00;15140.19;5107360;28;20549;-66
2022/10/22 08:08:44;;;;;;;6.68;6.07;;;14.80;99.90;;;-141.84;100.00;15328.97;5111342;27;20547;-65
2022/10/22 08:11:12;;;;;;;7.18;5.93;;;14.80;99.90;;;-141.84;100.00;15420.34;5111479;28;20225;-66
2022/10/22 08:13:40;;;;;;;8.10;5.65;;;14.80;99.90;;;-141.84;100.00;15507.63;5110868;28;20272;-66
2022/10/22 08:16:13;;;;;;;7.03;4.75;;;14.90;99.90;;;-141.84;100.00;15645.69;5110324;28;20227;-65
2022/10/22 08:18:41;;;;;;;8.45;5.40;;;14.90;99.90;;;-141.84;100.00;15862.91;5110623;28;20266;-66
2022/10/22 08:21:11;;;;;;;7.43;4.95;;;14.90;99.90;;;-141.84;100.00;15838.53;5110465;28;20238;-65
2022/10/22 08:23:39;;;;;;;5.53;4.32;;;14.90;99.90;;;-141.84;100.00;15751.25;5110945;28;20210;-66
2022/10/22 08:26:08;;;;;;;5.03;4.07;;;14.90;99.90;;;-141.84;100.00;15702.53;5111091;28;20207;-66
2022/10/22 08:28:36;;;;;;;4.50;4.10;;;14.80;99.90;;;-141.84;100.00;15637.56;5110292;28;20397;-66
2022/10/22 08:31:06;;;;;;;4.97;4.05;;;14.70;99.90;;;-141.84;100.00;15625.38;5110698;28;20229;-67
2022/10/22 08:33:34;;;;;;;4.38;3.97;;;14.70;99.90;;;-141.84;100.00;15605.06;5110582;28;20219;-65
2022/10/22 08:36:02;;;;;;;5.47;4.25;;;14.70;99.90;;;-141.84;100.00;15680.19;5110194;28;20219;-66
2022/10/22 08:38:32;;;;;;;4.78;3.72;;;14.70;99.90;;;-141.84;100.00;15629.44;5110248;28;20223;-65
2022/10/22 08:41:09;;;;;;;4.25;3.40;;;14.70;99.90;;;-141.84;100.00;15810.13;5111230;28;20203;-64
2022/10/22 08:44:28;;;;;;;3.35;3.15;;;14.70;99.90;;;-141.84;100.00;15913.66;5110585;28;20227;-65
2022/10/22 08:47:20;;;;;;;5.10;3.55;;;14.80;99.90;;;-141.84;100.00;16049.69;5111064;28;20211;-64
2022/10/22 08:49:50;;;;;;;3.90;3.05;;;14.80;99.90;;;-141.84;100.00;16108.59;5111084;28;20532;-64
2022/10/22 08:52:19;;;;;;;3.90;3.13;;;14.80;99.90;;;-141.84;100.00;16171.53;5110167;28;20234;-66
2022/10/22 08:54:54;;;;;;;3.17;2.88;;;14.80;99.90;;;-141.84;100.00;16419.25;5110872;28;20305;-66
2022/10/22 08:57:45;;;;;;;3.60;3.30;;;14.90;99.90;;;-141.84;100.00;16514.69;5110534;28;20701;-65
2022/10/22 09:00:25;;;;;;;3.85;2.53;;;15.00;99.90;;;-141.84;100.00;16551.25;5110158;28;20219;-65
2022/10/22 09:03:12;;;;;;;3.13;2.65;;;15.00;99.90;;;-141.84;100.00;16593.88;5110748;28;20234;-66
2022/10/22 09:05:52;;;;;;;2.70;2.40;;;15.00;99.90;;;-141.84;100.00;16766.50;5110291;28;20237;-66
2022/10/22 09:08:21;;;;;;;5.78;2.90;;;15.10;99.90;;;-141.84;100.00;16792.91;5110056;28;20504;-67
2022/10/22 09:10:59;;;;;;;3.55;3.25;;;15.10;99.90;;;-141.84;100.00;16796.97;5110623;28;20649;-66
2022/10/22 09:13:27;;;;;;;4.10;3.72;;;15.20;99.90;;;-141.84;100.00;16884.28;5110032;28;20268;-67
2022/10/22 09:16:00;;;;;;;3.22;2.60;;;15.30;99.90;;;-141.84;100.00;16933.03;5109664;28;20235;-65
2022/10/22 09:18:39;;;;;;;3.97;2.50;;;15.30;99.90;;;-141.84;100.00;16939.13;5109868;28;20272;-66
2022/10/22 09:21:23;;;;;;;2.58;2.38;;;15.40;99.90;;;-141.84;100.00;17192.97;5109766;28;20219;-64
2022/10/22 09:24:04;;;;;;;2.58;2.38;;;15.60;99.90;;;-141.84;99.34;17343.28;5110543;28;20473;-65
2022/10/22 09:26:38;;;;;;;2.47;2.22;;;15.70;99.90;;;-141.84;97.63;17457.03;5110128;28;20207;-64
2022/10/22 09:29:13;;;;;;;2.67;2.20;;;15.90;99.90;;;-141.84;90.52;17595.13;5111095;28;20180;-65
2022/10/22 09:31:41;;;;;;;2.38;2.17;;;16.10;99.90;;;-141.84;89.13;17698.72;5110048;28;20731;-65
2022/10/22 09:34:09;;;;;;;2.30;2.10;;;16.10;99.90;;;-141.84;88.88;17761.69;5110487;28;20219;-64
2022/10/22 09:36:38;;;;;;;2.10;2.00;;;16.30;99.90;;;-141.84;81.92;17844.97;5109513;28;20227;-64
2022/10/22 09:39:24;;;;;;;2.78;2.20;;;16.40;99.90;;;-141.84;80.51;17932.34;5111351;28;20246;-66
2022/10/22 09:41:54;;;;;;;1.98;1.88;;;16.60;99.90;;;-141.84;77.78;18180.16;5114369;27;20556;-66
2022/10/22 09:44:22;;;;;;;3.42;1.63;;;16.80;99.90;;;-141.84;76.86;18261.44;5114529;28;20207;-65
2022/10/22 09:46:50;;;;;;;2.75;1.75;;;16.90;99.90;;;-141.84;73.81;18525.53;5113695;28;20242;-64
2022/10/22 09:49:22;;;;;;;1.73;1.60;;;17.20;99.90;;;-141.84;71.90;18761.22;5113905;27;20222;-65
2022/10/22 09:51:55;;;;;;;2.00;1.50;;;17.50;99.90;;;-141.84;68.56;18895.31;5113196;28;20304;-64
2022/10/22 09:54:26;;;;;;;2.28;1.50;;;17.60;99.90;;;-141.84;68.50;18858.75;5113105;28;20234;-64
2022/10/22 09:57:02;;;;;;;1.50;1.40;;;17.50;99.90;;;-141.84;69.99;18734.81;5110605;28;20230;-64
2022/10/22 09:59:36;;;;;;;1.75;1.50;;;17.50;99.90;;;-141.84;71.18;18720.59;5113301;27;20222;-64
2022/10/22 10:02:14;;;;;;;1.63;1.52;;;17.30;99.90;;;-141.84;69.84;18818.09;5113195;28;20190;-64
2022/10/22 10:05:04;;;;;;;2.75;1.80;;;17.30;99.90;;;-141.84;70.25;18742.94;5113194;28;20632;-64
2022/10/22 10:07:34;;;;;;;2.60;1.48;;;17.20;99.90;;;-141.84;71.73;18700.25;5113086;28;20231;-63
2022/10/22 10:10:19;;;;;;;3.20;1.50;;;17.20;99.90;;;-141.84;70.88;18763.25;5113316;27;20230;-63